Terminal Aerodrome Forecast
Issued by NWS Missoula, MT

Home | Current Version | Previous Version | Text Only | Print | Product List | Glossary On
Versions: 1 2 3 4 5 6 7 8 9 10 11 12 13
000
FTUS45 KMSO 132300
TAFMSO
TAF
KMSO 132320Z 1400/1424 03010G16KT P6SM SKC
     FM140300 35005KT P6SM SKC
     FM141400 12010G15KT P6SM BKN160
     FM142300 10010KT P6SM VCSH BKN100=

USA.gov is the U.S. government's official web portal to all federal, state and local government web resources and services.